Caldwell, ID (83605)

5:39 PM MDT on August 29, 2016 (GMT -0600)
Breyer Sub | | Change Station
Active Advisory: Fire Weather Warning Active Notice: Public Information Statement

Elev 2438 ft 43.72 °N, 116.68 °W | Updated 6 minutes ago

Clear
Clear
91.8 °F
Feels Like 89 °F
N
3.2
Wind Variable Wind from East

Today
High -- | Low -- °F
--% Chance of Precip.
Yesterday
High -- | Low -- °F
Precip. -- in
Pressure 29.94 in
Visibility 10.0 miles
Clouds Clear
Heat Index 89 °F
Dew Point 51 °F
Humidity 25%
Rainfall 0.00 in
Snow Depth Not available.
7:07 AM 8:26 PM
Waning Crescent, 6% visible
METAR KEUL 292256Z AUTO 05006KT 10SM CLR 34/07 A3000 RMK AO2 SLP139 T03390067
Pressure 29.94 in
Visibility 10.0 miles
Clouds Clear
Heat Index 89 °F
Dew Point 51 °F
Humidity 25%
Rainfall 0.00 in
Snow Depth Not available.
7:07 AM 8:26 PM
Waning Crescent, 6% visible
METAR KEUL 292256Z AUTO 05006KT 10SM CLR 34/07 A3000 RMK AO2 SLP139 T03390067

10-Day Weather Forecast

Almanac

Astronomy

Aug. 29, 2016 Rise Set
Actual Time
Civil Twilight
Nautical Twilight
Astronomical Twilight
Moon
Length of Visible Light
Length of Day
Tomorrow will be .
, % of the Moon is Illuminated

Today's Extremes

State Highs State Lows

Community

WunderPhotos

Upload Photos

1,935,695 photos uploaded!

WunderBlog® & News

Nearby

Air Quality

  Air Quality AQ Index Pollutant
Not available.

Snow Depth

Station Depth Elevation

Earthquake Activity

City Distance Mag. Time & Date
Minimum magnitude displayed is 2.5.

Coastal Water Temperatures

Place Temperature

Stations

Nearby Weather Stations

Station Location Temp. Windchill Dew Point Humidity Wind Precip. Elev Updated Type
                   

Watches & Warnings

Fire Weather Warning
Issued: 1:52 PM MDT Aug. 29, 2016 – National Weather Service

... Red flag warning in effect from 2 PM to 9 PM MDT Tuesday for
gusty winds and low rh values but is also in effect for high
Haines indicies across the west central mountains...

The National Weather Service in Boise has issued a red flag
warning... which is in effect from 2 PM to 9 PM MDT Tuesday.

* Winds... gusts to 30 mph in the afternoon.

* Relative humidity... less than 15 percent.

* Haines... high Haines 6 values.

Precautionary/preparedness actions...

A red flag warning means that critical fire weather conditions
are either occurring now... or will shortly.